sensor_id;sensor_type;location;lat;lon;timestamp;P1;durP1;ratioP1;P2;durP2;ratioP2
11911;SDS011;6016;41.928;25.556;2024-03-02T00:00:50;47.65;;;17.90;;
11911;SDS011;6016;41.928;25.556;2024-03-02T00:03:18;49.95;;;19.80;;
11911;SDS011;6016;41.928;25.556;2024-03-02T00:05:52;50.60;;;19.33;;
11911;SDS011;6016;41.928;25.556;2024-03-02T00:08:22;58.30;;;19.17;;
11911;SDS011;6016;41.928;25.556;2024-03-02T00:10:51;54.22;;;19.80;;
11911;SDS011;6016;41.928;25.556;2024-03-02T00:13:20;57.20;;;19.30;;
11911;SDS011;6016;41.928;25.556;2024-03-02T00:15:51;49.30;;;18.83;;
11911;SDS011;6016;41.928;25.556;2024-03-02T00:18:23;49.95;;;17.75;;
11911;SDS011;6016;41.928;25.556;2024-03-02T00:20:58;43.55;;;18.50;;
11911;SDS011;6016;41.928;25.556;2024-03-02T00:23:27;47.25;;;17.63;;
11911;SDS011;6016;41.928;25.556;2024-03-02T00:25:56;52.38;;;18.83;;
11911;SDS011;6016;41.928;25.556;2024-03-02T00:28:25;47.33;;;18.60;;
11911;SDS011;6016;41.928;25.556;2024-03-02T00:30:57;48.85;;;17.45;;
11911;SDS011;6016;41.928;25.556;2024-03-02T00:33:27;49.40;;;18.52;;
11911;SDS011;6016;41.928;25.556;2024-03-02T00:35:56;44.42;;;17.27;;
11911;SDS011;6016;41.928;25.556;2024-03-02T00:38:26;47.70;;;18.10;;
11911;SDS011;6016;41.928;25.556;2024-03-02T00:40:58;50.72;;;18.52;;
11911;SDS011;6016;41.928;25.556;2024-03-02T00:46:19;53.38;;;18.27;;
11911;SDS011;6016;41.928;25.556;2024-03-02T00:48:53;50.28;;;19.35;;
11911;SDS011;6016;41.928;25.556;2024-03-02T00:51:23;47.03;;;17.60;;
11911;SDS011;6016;41.928;25.556;2024-03-02T00:53:53;50.67;;;17.63;;
11911;SDS011;6016;41.928;25.556;2024-03-02T00:56:22;52.30;;;19.73;;
11911;SDS011;6016;41.928;25.556;2024-03-02T00:58:49;54.65;;;19.75;;
11911;SDS011;6016;41.928;25.556;2024-03-02T01:01:19;54.50;;;19.60;;
11911;SDS011;6016;41.928;25.556;2024-03-02T01:03:47;53.28;;;20.42;;
11911;SDS011;6016;41.928;25.556;2024-03-02T01:06:14;52.90;;;20.02;;
11911;SDS011;6016;41.928;25.556;2024-03-02T01:08:42;52.65;;;19.95;;
11911;SDS011;6016;41.928;25.556;2024-03-02T01:11:10;54.03;;;20.88;;
11911;SDS011;6016;41.928;25.556;2024-03-02T01:13:39;56.30;;;20.35;;
11911;SDS011;6016;41.928;25.556;2024-03-02T01:16:06;53.10;;;19.45;;
11911;SDS011;6016;41.928;25.556;2024-03-02T01:18:33;56.20;;;20.80;;
11911;SDS011;6016;41.928;25.556;2024-03-02T01:21:03;52.58;;;20.05;;
11911;SDS011;6016;41.928;25.556;2024-03-02T01:23:30;56.95;;;21.27;;
11911;SDS011;6016;41.928;25.556;2024-03-02T01:25:58;53.97;;;20.13;;
11911;SDS011;6016;41.928;25.556;2024-03-02T01:28:25;52.92;;;19.50;;
11911;SDS011;6016;41.928;25.556;2024-03-02T01:30:54;53.25;;;18.75;;
11911;SDS011;6016;41.928;25.556;2024-03-02T01:33:21;56.80;;;19.30;;
11911;SDS011;6016;41.928;25.556;2024-03-02T01:35:48;58.80;;;20.60;;
11911;SDS011;6016;41.928;25.556;2024-03-02T01:38:15;61.17;;;21.42;;
11911;SDS011;6016;41.928;25.556;2024-03-02T01:40:42;60.00;;;22.08;;
11911;SDS011;6016;41.928;25.556;2024-03-02T01:43:11;60.33;;;21.90;;
11911;SDS011;6016;41.928;25.556;2024-03-02T01:45:38;63.97;;;22.67;;
11911;SDS011;6016;41.928;25.556;2024-03-02T01:48:05;59.78;;;20.42;;
11911;SDS011;6016;41.928;25.556;2024-03-02T01:50:33;64.78;;;22.05;;
11911;SDS011;6016;41.928;25.556;2024-03-02T01:53:00;61.72;;;22.23;;
11911;SDS011;6016;41.928;25.556;2024-03-02T01:55:28;68.57;;;23.48;;
11911;SDS011;6016;41.928;25.556;2024-03-02T01:57:59;64.87;;;22.57;;
11911;SDS011;6016;41.928;25.556;2024-03-02T02:00:30;60.38;;;21.67;;
11911;SDS011;6016;41.928;25.556;2024-03-02T02:02:57;62.33;;;23.95;;
11911;SDS011;6016;41.928;25.556;2024-03-02T02:05:26;62.00;;;21.63;;
11911;SDS011;6016;41.928;25.556;2024-03-02T02:07:56;66.05;;;22.83;;
11911;SDS011;6016;41.928;25.556;2024-03-02T02:10:23;61.88;;;21.80;;
11911;SDS011;6016;41.928;25.556;2024-03-02T02:12:50;60.97;;;20.83;;
11911;SDS011;6016;41.928;25.556;2024-03-02T02:15:24;62.85;;;22.73;;
11911;SDS011;6016;41.928;25.556;2024-03-02T02:17:53;62.67;;;20.48;;
11911;SDS011;6016;41.928;25.556;2024-03-02T02:20:20;61.85;;;20.65;;
11911;SDS011;6016;41.928;25.556;2024-03-02T02:22:58;63.03;;;22.02;;
11911;SDS011;6016;41.928;25.556;2024-03-02T02:25:26;59.55;;;22.20;;
11911;SDS011;6016;41.928;25.556;2024-03-02T02:27:53;63.45;;;21.15;;
11911;SDS011;6016;41.928;25.556;2024-03-02T02:30:20;62.67;;;21.38;;
11911;SDS011;6016;41.928;25.556;2024-03-02T02:32:48;66.53;;;21.92;;
11911;SDS011;6016;41.928;25.556;2024-03-02T02:35:15;66.05;;;22.00;;
11911;SDS011;6016;41.928;25.556;2024-03-02T02:37:43;64.05;;;21.92;;
11911;SDS011;6016;41.928;25.556;2024-03-02T02:40:11;60.25;;;20.63;;
11911;SDS011;6016;41.928;25.556;2024-03-02T02:42:39;64.47;;;22.27;;
11911;SDS011;6016;41.928;25.556;2024-03-02T02:45:06;62.88;;;20.88;;
11911;SDS011;6016;41.928;25.556;2024-03-02T02:47:33;56.30;;;18.98;;
11911;SDS011;6016;41.928;25.556;2024-03-02T02:50:01;56.72;;;21.25;;
11911;SDS011;6016;41.928;25.556;2024-03-02T02:52:32;55.33;;;19.40;;
11911;SDS011;6016;41.928;25.556;2024-03-02T02:55:01;52.72;;;18.80;;
11911;SDS011;6016;41.928;25.556;2024-03-02T02:57:31;47.47;;;17.88;;
11911;SDS011;6016;41.928;25.556;2024-03-02T03:00:01;50.33;;;18.88;;
11911;SDS011;6016;41.928;25.556;2024-03-02T03:02:35;49.65;;;18.15;;
11911;SDS011;6016;41.928;25.556;2024-03-02T03:05:03;49.88;;;18.60;;
11911;SDS011;6016;41.928;25.556;2024-03-02T03:07:31;57.65;;;20.50;;
11911;SDS011;6016;41.928;25.556;2024-03-02T03:09:59;48.08;;;18.45;;
11911;SDS011;6016;41.928;25.556;2024-03-02T03:12:26;61.83;;;20.90;;
11911;SDS011;6016;41.928;25.556;2024-03-02T03:14:54;55.35;;;20.70;;
11911;SDS011;6016;41.928;25.556;2024-03-02T03:17:21;60.00;;;22.10;;
11911;SDS011;6016;41.928;25.556;2024-03-02T03:19:48;47.95;;;20.13;;
11911;SDS011;6016;41.928;25.556;2024-03-02T03:22:15;53.33;;;18.92;;
11911;SDS011;6016;41.928;25.556;2024-03-02T03:24:42;54.33;;;20.13;;
11911;SDS011;6016;41.928;25.556;2024-03-02T03:27:09;49.17;;;18.63;;
11911;SDS011;6016;41.928;25.556;2024-03-02T03:29:37;48.10;;;17.90;;
11911;SDS011;6016;41.928;25.556;2024-03-02T03:32:06;47.78;;;18.33;;
11911;SDS011;6016;41.928;25.556;2024-03-02T03:34:33;53.40;;;19.38;;
11911;SDS011;6016;41.928;25.556;2024-03-02T03:37:00;52.30;;;19.52;;
11911;SDS011;6016;41.928;25.556;2024-03-02T03:39:27;56.95;;;19.38;;
11911;SDS011;6016;41.928;25.556;2024-03-02T03:41:54;56.97;;;19.15;;
11911;SDS011;6016;41.928;25.556;2024-03-02T03:44:21;52.60;;;19.70;;
11911;SDS011;6016;41.928;25.556;2024-03-02T03:46:48;55.15;;;19.42;;
11911;SDS011;6016;41.928;25.556;2024-03-02T03:49:17;63.58;;;19.65;;
11911;SDS011;6016;41.928;25.556;2024-03-02T03:51:44;50.42;;;19.48;;
11911;SDS011;6016;41.928;25.556;2024-03-02T03:54:11;61.63;;;20.80;;
11911;SDS011;6016;41.928;25.556;2024-03-02T03:56:38;57.05;;;18.45;;
11911;SDS011;6016;41.928;25.556;2024-03-02T03:59:05;54.80;;;18.83;;
11911;SDS011;6016;41.928;25.556;2024-03-02T04:01:32;57.67;;;20.25;;
11911;SDS011;6016;41.928;25.556;2024-03-02T04:03:59;54.97;;;19.60;;
11911;SDS011;6016;41.928;25.556;2024-03-02T04:06:28;63.08;;;20.60;;
11911;SDS011;6016;41.928;25.556;2024-03-02T04:08:55;63.20;;;20.45;;
11911;SDS011;6016;41.928;25.556;2024-03-02T04:11:22;60.58;;;21.25;;
11911;SDS011;6016;41.928;25.556;2024-03-02T04:13:49;59.42;;;20.77;;
11911;SDS011;6016;41.928;25.556;2024-03-02T04:16:16;60.17;;;20.75;;
11911;SDS011;6016;41.928;25.556;2024-03-02T04:18:43;61.85;;;19.15;;
11911;SDS011;6016;41.928;25.556;2024-03-02T04:21:10;63.33;;;20.67;;
11911;SDS011;6016;41.928;25.556;2024-03-02T04:23:39;66.95;;;20.65;;
11911;SDS011;6016;41.928;25.556;2024-03-02T04:26:06;64.65;;;21.27;;
11911;SDS011;6016;41.928;25.556;2024-03-02T04:28:33;60.42;;;18.95;;
11911;SDS011;6016;41.928;25.556;2024-03-02T04:31:00;55.33;;;18.67;;
11911;SDS011;6016;41.928;25.556;2024-03-02T04:33:27;54.10;;;18.83;;
11911;SDS011;6016;41.928;25.556;2024-03-02T04:35:53;52.97;;;18.40;;
11911;SDS011;6016;41.928;25.556;2024-03-02T04:38:20;54.58;;;19.13;;
11911;SDS011;6016;41.928;25.556;2024-03-02T04:40:49;63.33;;;19.70;;
11911;SDS011;6016;41.928;25.556;2024-03-02T04:43:16;54.92;;;18.60;;
11911;SDS011;6016;41.928;25.556;2024-03-02T04:45:44;56.40;;;21.05;;
11911;SDS011;6016;41.928;25.556;2024-03-02T04:48:11;62.33;;;21.33;;
11911;SDS011;6016;41.928;25.556;2024-03-02T04:50:38;62.80;;;19.90;;
11911;SDS011;6016;41.928;25.556;2024-03-02T04:53:05;58.83;;;19.10;;
11911;SDS011;6016;41.928;25.556;2024-03-02T04:55:32;62.38;;;21.05;;
11911;SDS011;6016;41.928;25.556;2024-03-02T04:58:30;57.63;;;20.00;;
11911;SDS011;6016;41.928;25.556;2024-03-02T05:00:57;55.70;;;19.83;;
11911;SDS011;6016;41.928;25.556;2024-03-02T05:03:24;60.15;;;20.65;;
11911;SDS011;6016;41.928;25.556;2024-03-02T05:05:53;62.47;;;22.02;;
11911;SDS011;6016;41.928;25.556;2024-03-02T05:08:20;69.32;;;20.45;;
11911;SDS011;6016;41.928;25.556;2024-03-02T05:10:46;65.13;;;19.42;;
11911;SDS011;6016;41.928;25.556;2024-03-02T05:13:13;59.63;;;19.00;;
11911;SDS011;6016;41.928;25.556;2024-03-02T05:15:44;59.15;;;20.10;;
11911;SDS011;6016;41.928;25.556;2024-03-02T05:18:12;61.20;;;22.27;;
11911;SDS011;6016;41.928;25.556;2024-03-02T05:20:39;65.70;;;21.67;;
11911;SDS011;6016;41.928;25.556;2024-03-02T05:23:05;63.65;;;20.23;;
11911;SDS011;6016;41.928;25.556;2024-03-02T05:25:32;57.20;;;19.80;;
11911;SDS011;6016;41.928;25.556;2024-03-02T05:28:00;63.45;;;20.65;;
11911;SDS011;6016;41.928;25.556;2024-03-02T05:30:27;63.70;;;21.35;;
11911;SDS011;6016;41.928;25.556;2024-03-02T05:32:55;65.07;;;21.05;;
11911;SDS011;6016;41.928;25.556;2024-03-02T05:35:23;63.30;;;20.45;;
11911;SDS011;6016;41.928;25.556;2024-03-02T05:37:50;68.00;;;20.75;;
11911;SDS011;6016;41.928;25.556;2024-03-02T05:40:17;64.53;;;21.63;;
11911;SDS011;6016;41.928;25.556;2024-03-02T05:42:44;74.93;;;26.45;;
11911;SDS011;6016;41.928;25.556;2024-03-02T05:45:12;73.25;;;22.33;;
11911;SDS011;6016;41.928;25.556;2024-03-02T05:47:41;85.60;;;28.85;;
11911;SDS011;6016;41.928;25.556;2024-03-02T05:50:10;71.60;;;23.95;;
11911;SDS011;6016;41.928;25.556;2024-03-02T05:52:37;71.95;;;24.10;;
11911;SDS011;6016;41.928;25.556;2024-03-02T05:55:04;67.60;;;22.25;;
11911;SDS011;6016;41.928;25.556;2024-03-02T05:57:31;59.85;;;20.15;;
11911;SDS011;6016;41.928;25.556;2024-03-02T06:00:12;63.25;;;21.15;;
11911;SDS011;6016;41.928;25.556;2024-03-02T06:02:42;68.60;;;23.42;;
11911;SDS011;6016;41.928;25.556;2024-03-02T06:05:10;53.20;;;19.40;;
11911;SDS011;6016;41.928;25.556;2024-03-02T06:07:37;64.60;;;24.67;;
11911;SDS011;6016;41.928;25.556;2024-03-02T06:10:04;58.65;;;20.75;;
11911;SDS011;6016;41.928;25.556;2024-03-02T06:12:32;59.35;;;21.50;;
11911;SDS011;6016;41.928;25.556;2024-03-02T06:14:59;53.80;;;19.70;;
11911;SDS011;6016;41.928;25.556;2024-03-02T06:17:26;61.92;;;20.85;;
11911;SDS011;6016;41.928;25.556;2024-03-02T06:19:53;60.80;;;21.38;;
11911;SDS011;6016;41.928;25.556;2024-03-02T06:22:22;50.67;;;20.67;;
11911;SDS011;6016;41.928;25.556;2024-03-02T06:24:50;50.85;;;20.85;;
11911;SDS011;6016;41.928;25.556;2024-03-02T06:27:17;62.70;;;21.65;;
11911;SDS011;6016;41.928;25.556;2024-03-02T06:29:44;57.63;;;21.35;;
11911;SDS011;6016;41.928;25.556;2024-03-02T06:32:11;57.65;;;21.25;;
11911;SDS011;6016;41.928;25.556;2024-03-02T06:34:38;53.00;;;22.50;;
11911;SDS011;6016;41.928;25.556;2024-03-02T06:37:05;60.28;;;22.20;;
11911;SDS011;6016;41.928;25.556;2024-03-02T06:39:33;56.70;;;21.30;;
11911;SDS011;6016;41.928;25.556;2024-03-02T06:42:01;58.28;;;24.60;;
11911;SDS011;6016;41.928;25.556;2024-03-02T06:44:28;47.78;;;18.80;;
11911;SDS011;6016;41.928;25.556;2024-03-02T06:46:55;46.15;;;19.10;;
11911;SDS011;6016;41.928;25.556;2024-03-02T06:49:22;46.15;;;18.90;;
11911;SDS011;6016;41.928;25.556;2024-03-02T06:51:48;38.72;;;16.95;;
11911;SDS011;6016;41.928;25.556;2024-03-02T06:54:15;40.80;;;17.15;;
11911;SDS011;6016;41.928;25.556;2024-03-02T06:56:43;41.25;;;17.48;;
11911;SDS011;6016;41.928;25.556;2024-03-02T06:59:10;44.83;;;18.85;;
11911;SDS011;6016;41.928;25.556;2024-03-02T07:01:37;44.58;;;18.25;;
11911;SDS011;6016;41.928;25.556;2024-03-02T07:04:04;38.75;;;15.65;;
11911;SDS011;6016;41.928;25.556;2024-03-02T07:06:32;33.47;;;14.77;;
11911;SDS011;6016;41.928;25.556;2024-03-02T07:08:59;32.08;;;14.02;;
11911;SDS011;6016;41.928;25.556;2024-03-02T07:11:26;36.10;;;15.00;;
11911;SDS011;6016;41.928;25.556;2024-03-02T07:13:54;38.45;;;16.33;;
11911;SDS011;6016;41.928;25.556;2024-03-02T07:16:21;50.90;;;20.35;;
11911;SDS011;6016;41.928;25.556;2024-03-02T07:18:53;50.45;;;21.95;;
11911;SDS011;6016;41.928;25.556;2024-03-02T07:21:21;49.20;;;20.20;;
11911;SDS011;6016;41.928;25.556;2024-03-02T07:23:49;33.33;;;14.93;;
11911;SDS011;6016;41.928;25.556;2024-03-02T07:26:16;40.40;;;15.75;;
11911;SDS011;6016;41.928;25.556;2024-03-02T07:28:44;42.67;;;16.65;;
11911;SDS011;6016;41.928;25.556;2024-03-02T07:31:14;39.90;;;15.88;;
11911;SDS011;6016;41.928;25.556;2024-03-02T07:33:43;43.20;;;17.88;;
11911;SDS011;6016;41.928;25.556;2024-03-02T07:36:11;43.40;;;18.85;;
11911;SDS011;6016;41.928;25.556;2024-03-02T07:38:38;38.88;;;15.27;;
11911;SDS011;6016;41.928;25.556;2024-03-02T07:41:05;37.83;;;14.70;;
11911;SDS011;6016;41.928;25.556;2024-03-02T07:43:33;37.03;;;15.00;;
11911;SDS011;6016;41.928;25.556;2024-03-02T07:46:00;36.75;;;15.98;;
11911;SDS011;6016;41.928;25.556;2024-03-02T07:48:29;30.25;;;14.60;;
11911;SDS011;6016;41.928;25.556;2024-03-02T07:50:57;34.10;;;14.60;;
11911;SDS011;6016;41.928;25.556;2024-03-02T07:53:24;41.63;;;14.38;;
11911;SDS011;6016;41.928;25.556;2024-03-02T07:55:51;33.47;;;14.35;;
11911;SDS011;6016;41.928;25.556;2024-03-02T07:58:18;33.28;;;13.95;;
11911;SDS011;6016;41.928;25.556;2024-03-02T08:00:45;32.22;;;14.25;;
11911;SDS011;6016;41.928;25.556;2024-03-02T08:03:13;39.15;;;15.45;;
11911;SDS011;6016;41.928;25.556;2024-03-02T08:05:41;41.10;;;17.35;;
11911;SDS011;6016;41.928;25.556;2024-03-02T08:08:08;43.63;;;16.15;;
11911;SDS011;6016;41.928;25.556;2024-03-02T08:10:37;38.38;;;15.68;;
11911;SDS011;6016;41.928;25.556;2024-03-02T08:13:04;39.33;;;17.40;;
11911;SDS011;6016;41.928;25.556;2024-03-02T08:15:31;33.70;;;15.15;;
11911;SDS011;6016;41.928;25.556;2024-03-02T08:17:58;36.60;;;16.23;;
11911;SDS011;6016;41.928;25.556;2024-03-02T08:20:25;39.97;;;15.73;;
11911;SDS011;6016;41.928;25.556;2024-03-02T08:22:53;40.63;;;15.85;;
11911;SDS011;6016;41.928;25.556;2024-03-02T08:25:21;38.90;;;15.68;;
11911;SDS011;6016;41.928;25.556;2024-03-02T08:27:48;36.60;;;16.75;;
11911;SDS011;6016;41.928;25.556;2024-03-02T08:30:15;40.20;;;17.35;;
11911;SDS011;6016;41.928;25.556;2024-03-02T08:32:43;41.22;;;18.13;;
11911;SDS011;6016;41.928;25.556;2024-03-02T08:35:10;34.47;;;15.60;;
11911;SDS011;6016;41.928;25.556;2024-03-02T08:37:37;41.92;;;17.15;;
11911;SDS011;6016;41.928;25.556;2024-03-02T08:40:08;37.60;;;16.63;;
11911;SDS011;6016;41.928;25.556;2024-03-02T08:42:36;42.55;;;18.95;;
11911;SDS011;6016;41.928;25.556;2024-03-02T08:45:03;38.78;;;18.38;;
11911;SDS011;6016;41.928;25.556;2024-03-02T08:47:31;42.35;;;17.42;;
11911;SDS011;6016;41.928;25.556;2024-03-02T08:49:59;41.80;;;17.02;;
11911;SDS011;6016;41.928;25.556;2024-03-02T08:52:26;39.20;;;17.10;;
11911;SDS011;6016;41.928;25.556;2024-03-02T08:54:53;46.88;;;18.30;;
11911;SDS011;6016;41.928;25.556;2024-03-02T08:57:21;41.22;;;16.63;;
11911;SDS011;6016;41.928;25.556;2024-03-02T08:59:48;36.90;;;16.55;;
11911;SDS011;6016;41.928;25.556;2024-03-02T09:02:15;46.17;;;19.50;;
11911;SDS011;6016;41.928;25.556;2024-03-02T09:04:42;43.42;;;18.98;;
11911;SDS011;6016;41.928;25.556;2024-03-02T09:07:09;43.90;;;19.65;;
11911;SDS011;6016;41.928;25.556;2024-03-02T09:09:36;43.25;;;19.63;;
11911;SDS011;6016;41.928;25.556;2024-03-02T09:12:05;43.35;;;19.02;;
11911;SDS011;6016;41.928;25.556;2024-03-02T09:14:33;47.72;;;19.88;;
11911;SDS011;6016;41.928;25.556;2024-03-02T09:17:03;46.80;;;20.35;;
11911;SDS011;6016;41.928;25.556;2024-03-02T09:19:30;42.28;;;18.50;;
11911;SDS011;6016;41.928;25.556;2024-03-02T09:21:57;44.20;;;20.05;;
11911;SDS011;6016;41.928;25.556;2024-03-02T09:24:24;51.80;;;20.38;;
11911;SDS011;6016;41.928;25.556;2024-03-02T09:26:51;46.30;;;19.77;;
11911;SDS011;6016;41.928;25.556;2024-03-02T09:29:18;51.05;;;21.13;;
11911;SDS011;6016;41.928;25.556;2024-03-02T09:31:47;44.38;;;20.73;;
11911;SDS011;6016;41.928;25.556;2024-03-02T09:34:14;51.92;;;21.98;;
11911;SDS011;6016;41.928;25.556;2024-03-02T09:36:41;42.05;;;18.83;;
11911;SDS011;6016;41.928;25.556;2024-03-02T09:39:09;46.05;;;20.10;;
11911;SDS011;6016;41.928;25.556;2024-03-02T09:41:36;51.42;;;22.00;;
11911;SDS011;6016;41.928;25.556;2024-03-02T09:44:03;51.63;;;21.45;;
11911;SDS011;6016;41.928;25.556;2024-03-02T09:46:31;59.53;;;24.10;;
11911;SDS011;6016;41.928;25.556;2024-03-02T09:48:59;59.88;;;24.38;;
11911;SDS011;6016;41.928;25.556;2024-03-02T09:51:29;64.88;;;25.23;;
11911;SDS011;6016;41.928;25.556;2024-03-02T09:53:57;64.32;;;25.33;;
11911;SDS011;6016;41.928;25.556;2024-03-02T09:56:27;58.88;;;23.00;;
11911;SDS011;6016;41.928;25.556;2024-03-02T09:58:54;64.25;;;24.92;;
11911;SDS011;6016;41.928;25.556;2024-03-02T10:01:21;68.40;;;25.77;;
11911;SDS011;6016;41.928;25.556;2024-03-02T10:03:48;66.07;;;25.20;;
11911;SDS011;6016;41.928;25.556;2024-03-02T10:06:21;66.93;;;25.67;;
11911;SDS011;6016;41.928;25.556;2024-03-02T10:08:48;74.20;;;27.67;;
11911;SDS011;6016;41.928;25.556;2024-03-02T10:11:27;64.63;;;25.45;;
11911;SDS011;6016;41.928;25.556;2024-03-02T10:14:05;61.47;;;23.40;;
11911;SDS011;6016;41.928;25.556;2024-03-02T10:16:36;57.03;;;22.40;;
11911;SDS011;6016;41.928;25.556;2024-03-02T10:19:16;54.60;;;22.50;;
11911;SDS011;6016;41.928;25.556;2024-03-02T10:21:46;63.72;;;23.52;;
11911;SDS011;6016;41.928;25.556;2024-03-02T10:24:14;50.83;;;22.02;;
11911;SDS011;6016;41.928;25.556;2024-03-02T10:26:41;52.55;;;20.92;;
11911;SDS011;6016;41.928;25.556;2024-03-02T10:29:08;55.47;;;23.02;;
11911;SDS011;6016;41.928;25.556;2024-03-02T10:31:36;59.80;;;22.85;;
11911;SDS011;6016;41.928;25.556;2024-03-02T10:34:04;57.50;;;22.10;;
11911;SDS011;6016;41.928;25.556;2024-03-02T10:36:32;58.53;;;23.85;;
11911;SDS011;6016;41.928;25.556;2024-03-02T10:39:02;61.10;;;23.73;;
11911;SDS011;6016;41.928;25.556;2024-03-02T10:41:32;61.17;;;22.92;;
11911;SDS011;6016;41.928;25.556;2024-03-02T10:44:01;50.38;;;21.73;;
11911;SDS011;6016;41.928;25.556;2024-03-02T10:46:29;53.10;;;21.95;;
11911;SDS011;6016;41.928;25.556;2024-03-02T10:48:57;55.58;;;21.85;;
11911;SDS011;6016;41.928;25.556;2024-03-02T10:51:25;57.00;;;22.80;;
11911;SDS011;6016;41.928;25.556;2024-03-02T10:53:54;63.78;;;24.15;;
11911;SDS011;6016;41.928;25.556;2024-03-02T10:56:28;54.17;;;23.00;;
11911;SDS011;6016;41.928;25.556;2024-03-02T10:58:59;49.53;;;20.52;;
11911;SDS011;6016;41.928;25.556;2024-03-02T11:03:56;55.08;;;22.80;;
11911;SDS011;6016;41.928;25.556;2024-03-02T11:06:23;59.17;;;23.67;;
11911;SDS011;6016;41.928;25.556;2024-03-02T11:08:55;55.53;;;24.60;;
11911;SDS011;6016;41.928;25.556;2024-03-02T11:11:27;53.35;;;23.17;;
11911;SDS011;6016;41.928;25.556;2024-03-02T11:14:00;58.63;;;25.33;;
11911;SDS011;6016;41.928;25.556;2024-03-02T11:16:34;64.43;;;25.38;;
11911;SDS011;6016;41.928;25.556;2024-03-02T11:19:03;53.53;;;23.65;;
11911;SDS011;6016;41.928;25.556;2024-03-02T11:21:31;58.63;;;24.70;;
11911;SDS011;6016;41.928;25.556;2024-03-02T11:23:59;62.15;;;26.05;;
11911;SDS011;6016;41.928;25.556;2024-03-02T11:26:28;81.35;;;32.30;;
11911;SDS011;6016;41.928;25.556;2024-03-02T11:29:04;69.47;;;28.58;;
11911;SDS011;6016;41.928;25.556;2024-03-02T11:34:28;79.57;;;30.13;;
11911;SDS011;6016;41.928;25.556;2024-03-02T11:36:56;87.93;;;36.47;;
11911;SDS011;6016;41.928;25.556;2024-03-02T11:39:24;64.55;;;27.63;;
11911;SDS011;6016;41.928;25.556;2024-03-02T11:41:53;55.53;;;22.65;;
11911;SDS011;6016;41.928;25.556;2024-03-02T11:44:20;66.57;;;28.25;;
11911;SDS011;6016;41.928;25.556;2024-03-02T11:46:51;64.50;;;27.45;;
11911;SDS011;6016;41.928;25.556;2024-03-02T11:49:20;63.72;;;24.88;;
11911;SDS011;6016;41.928;25.556;2024-03-02T11:52:04;63.33;;;27.08;;
11911;SDS011;6016;41.928;25.556;2024-03-02T11:54:32;62.30;;;25.40;;
11911;SDS011;6016;41.928;25.556;2024-03-02T11:57:02;55.05;;;23.77;;
11911;SDS011;6016;41.928;25.556;2024-03-02T11:59:30;59.45;;;24.55;;
11911;SDS011;6016;41.928;25.556;2024-03-02T12:01:57;51.05;;;23.38;;
11911;SDS011;6016;41.928;25.556;2024-03-02T12:04:26;53.88;;;23.60;;
11911;SDS011;6016;41.928;25.556;2024-03-02T12:06:56;54.47;;;22.35;;
11911;SDS011;6016;41.928;25.556;2024-03-02T12:09:26;56.10;;;21.92;;
11911;SDS011;6016;41.928;25.556;2024-03-02T12:12:05;55.60;;;23.23;;
11911;SDS011;6016;41.928;25.556;2024-03-02T12:14:33;53.80;;;24.00;;
11911;SDS011;6016;41.928;25.556;2024-03-02T12:17:01;49.58;;;21.80;;
11911;SDS011;6016;41.928;25.556;2024-03-02T12:19:29;51.10;;;20.90;;
11911;SDS011;6016;41.928;25.556;2024-03-02T12:21:57;48.28;;;21.02;;
11911;SDS011;6016;41.928;25.556;2024-03-02T12:24:26;49.60;;;22.13;;
11911;SDS011;6016;41.928;25.556;2024-03-02T12:26:54;46.38;;;20.40;;
11911;SDS011;6016;41.928;25.556;2024-03-02T12:29:23;48.60;;;20.48;;
11911;SDS011;6016;41.928;25.556;2024-03-02T12:31:50;45.83;;;19.83;;
11911;SDS011;6016;41.928;25.556;2024-03-02T12:34:18;42.47;;;19.33;;
11911;SDS011;6016;41.928;25.556;2024-03-02T12:36:45;46.47;;;19.80;;
11911;SDS011;6016;41.928;25.556;2024-03-02T12:39:15;47.60;;;19.58;;
11911;SDS011;6016;41.928;25.556;2024-03-02T12:41:43;49.97;;;20.35;;
11911;SDS011;6016;41.928;25.556;2024-03-02T12:44:10;43.08;;;19.25;;
11911;SDS011;6016;41.928;25.556;2024-03-02T12:46:38;44.63;;;18.98;;
11911;SDS011;6016;41.928;25.556;2024-03-02T12:49:07;48.72;;;19.33;;
11911;SDS011;6016;41.928;25.556;2024-03-02T12:51:36;45.20;;;19.88;;
11911;SDS011;6016;41.928;25.556;2024-03-02T12:54:05;46.53;;;19.98;;
11911;SDS011;6016;41.928;25.556;2024-03-02T12:56:32;45.50;;;19.15;;
11911;SDS011;6016;41.928;25.556;2024-03-02T12:58:59;43.95;;;19.65;;
11911;SDS011;6016;41.928;25.556;2024-03-02T13:01:26;57.65;;;23.08;;
11911;SDS011;6016;41.928;25.556;2024-03-02T13:03:54;47.58;;;20.80;;
11911;SDS011;6016;41.928;25.556;2024-03-02T13:06:22;51.22;;;21.38;;
11911;SDS011;6016;41.928;25.556;2024-03-02T13:08:49;43.35;;;19.63;;
11911;SDS011;6016;41.928;25.556;2024-03-02T13:11:20;44.05;;;18.35;;
11911;SDS011;6016;41.928;25.556;2024-03-02T13:13:48;42.42;;;18.33;;
11911;SDS011;6016;41.928;25.556;2024-03-02T13:16:15;40.67;;;18.65;;
11911;SDS011;6016;41.928;25.556;2024-03-02T13:18:44;41.95;;;17.98;;
11911;SDS011;6016;41.928;25.556;2024-03-02T13:21:13;43.75;;;17.83;;
11911;SDS011;6016;41.928;25.556;2024-03-02T13:23:40;46.03;;;19.08;;
11911;SDS011;6016;41.928;25.556;2024-03-02T13:26:07;39.30;;;17.75;;
11911;SDS011;6016;41.928;25.556;2024-03-02T13:28:36;40.75;;;17.33;;
11911;SDS011;6016;41.928;25.556;2024-03-02T13:31:04;45.13;;;17.30;;
11911;SDS011;6016;41.928;25.556;2024-03-02T13:33:32;48.35;;;20.10;;
11911;SDS011;6016;41.928;25.556;2024-03-02T13:35:59;46.80;;;18.70;;
11911;SDS011;6016;41.928;25.556;2024-03-02T13:38:28;47.08;;;19.10;;
11911;SDS011;6016;41.928;25.556;2024-03-02T13:40:55;45.58;;;18.23;;
11911;SDS011;6016;41.928;25.556;2024-03-02T13:43:22;45.22;;;18.13;;
11911;SDS011;6016;41.928;25.556;2024-03-02T13:45:49;43.03;;;18.65;;
11911;SDS011;6016;41.928;25.556;2024-03-02T13:48:18;39.83;;;18.33;;
11911;SDS011;6016;41.928;25.556;2024-03-02T13:50:45;46.83;;;19.67;;
11911;SDS011;6016;41.928;25.556;2024-03-02T13:53:12;43.63;;;19.08;;
11911;SDS011;6016;41.928;25.556;2024-03-02T13:55:41;42.72;;;17.25;;
11911;SDS011;6016;41.928;25.556;2024-03-02T13:58:08;42.92;;;18.25;;
11911;SDS011;6016;41.928;25.556;2024-03-02T14:00:36;46.67;;;18.55;;
11911;SDS011;6016;41.928;25.556;2024-03-02T14:03:05;41.47;;;16.83;;
11911;SDS011;6016;41.928;25.556;2024-03-02T14:05:32;38.60;;;16.88;;
11911;SDS011;6016;41.928;25.556;2024-03-02T14:08:00;36.63;;;16.95;;
11911;SDS011;6016;41.928;25.556;2024-03-02T14:10:27;42.92;;;19.02;;
11911;SDS011;6016;41.928;25.556;2024-03-02T14:12:55;41.22;;;19.23;;
11911;SDS011;6016;41.928;25.556;2024-03-02T14:15:22;39.78;;;17.73;;
11911;SDS011;6016;41.928;25.556;2024-03-02T14:17:50;38.78;;;17.50;;
11911;SDS011;6016;41.928;25.556;2024-03-02T14:20:17;38.92;;;18.10;;
11911;SDS011;6016;41.928;25.556;2024-03-02T14:22:47;35.67;;;16.55;;
11911;SDS011;6016;41.928;25.556;2024-03-02T14:25:15;43.40;;;16.63;;
11911;SDS011;6016;41.928;25.556;2024-03-02T14:27:43;38.67;;;16.90;;
11911;SDS011;6016;41.928;25.556;2024-03-02T14:30:12;39.60;;;17.42;;
11911;SDS011;6016;41.928;25.556;2024-03-02T14:32:40;37.47;;;17.52;;
11911;SDS011;6016;41.928;25.556;2024-03-02T14:35:07;39.00;;;17.17;;